createdAt,value
2022-10-06T00:00:53.170Z,98538.97
2022-10-06T00:03:23.187Z,98540.22
2022-10-06T00:05:50.988Z,98538.97
2022-10-06T00:08:18.888Z,98529.66
2022-10-06T00:10:46.066Z,98531.28
2022-10-06T00:13:12.907Z,98535.06
2022-10-06T00:15:40.092Z,98529.22
2022-10-06T00:18:06.900Z,98520.50
2022-10-06T00:20:33.665Z,98520.13
2022-10-06T00:23:00.751Z,98520.84
2022-10-06T00:25:28.284Z,98521.44
2022-10-06T00:27:56.080Z,98524.50
2022-10-06T00:30:27.348Z,98527.34
2022-10-06T00:32:57.364Z,98526.34
2022-10-06T00:35:25.952Z,98522.78
2022-10-06T00:37:52.931Z,98533.69
2022-10-06T00:40:20.482Z,98528.03
2022-10-06T00:43:05.838Z,98526.84
2022-10-06T00:45:45.190Z,98530.53
2022-10-06T00:48:21.962Z,98529.69
2022-10-06T00:50:48.889Z,98526.66
2022-10-06T00:53:17.047Z,98527.16
2022-10-06T00:55:43.951Z,98530.75
2022-10-06T00:58:12.332Z,98527.91
2022-10-06T01:00:42.905Z,98529.28
2022-10-06T01:03:19.185Z,98532.88
2022-10-06T01:05:51.061Z,98525.94
2022-10-06T01:08:18.493Z,98524.91
2022-10-06T01:10:45.657Z,98524.69
2022-10-06T01:13:13.399Z,98523.16
2022-10-06T01:15:48.403Z,98521.38
2022-10-06T01:18:18.778Z,98515.50
2022-10-06T01:20:52.800Z,98516.34
2022-10-06T01:23:20.168Z,98519.91
2022-10-06T01:25:47.371Z,98517.59
2022-10-06T01:28:15.100Z,98518.06
2022-10-06T01:30:52.926Z,98519.50
2022-10-06T01:33:22.344Z,98509.00
2022-10-06T01:35:52.325Z,98523.28
2022-10-06T01:38:20.499Z,98518.06
2022-10-06T01:40:52.283Z,98523.47
2022-10-06T01:43:19.538Z,98523.72
2022-10-06T01:45:53.865Z,98517.50
2022-10-06T01:48:21.062Z,98507.97
2022-10-06T01:50:48.118Z,98513.22
2022-10-06T01:53:15.273Z,98508.06
2022-10-06T01:55:42.026Z,98511.53
2022-10-06T01:58:11.438Z,98513.84
2022-10-06T02:00:41.606Z,98507.66
2022-10-06T02:03:08.771Z,98507.78
2022-10-06T02:05:35.678Z,98505.59
2022-10-06T02:08:03.058Z,98513.97
2022-10-06T02:10:33.177Z,98519.75
2022-10-06T02:12:59.880Z,98514.59
2022-10-06T02:15:28.255Z,98516.25
2022-10-06T02:17:55.904Z,98516.47
2022-10-06T02:20:27.440Z,98513.44
2022-10-06T02:22:54.053Z,98518.75
2022-10-06T02:25:20.818Z,98519.06
2022-10-06T02:27:48.333Z,98513.00
2022-10-06T02:30:16.855Z,98522.63
2022-10-06T02:32:46.230Z,98510.72
2022-10-06T02:35:13.686Z,98517.19
2022-10-06T02:37:44.151Z,98509.75
2022-10-06T02:40:16.681Z,98511.63
2022-10-06T02:42:46.113Z,98513.59
2022-10-06T02:45:17.233Z,98515.28
2022-10-06T02:47:44.810Z,98521.34
2022-10-06T02:50:13.758Z,98520.81
2022-10-06T02:52:42.832Z,98518.94
2022-10-06T02:55:11.050Z,98534.56
2022-10-06T02:57:38.014Z,98535.38
2022-10-06T03:00:07.745Z,98536.34
2022-10-06T03:02:34.730Z,98540.00
2022-10-06T03:05:02.186Z,98543.34
2022-10-06T03:07:28.905Z,98544.69
2022-10-06T03:09:55.654Z,98550.03
2022-10-06T03:12:24.500Z,98546.38
2022-10-06T03:14:52.211Z,98549.63
2022-10-06T03:17:19.738Z,98547.13
2022-10-06T03:19:52.055Z,98555.06
2022-10-06T03:22:19.051Z,98554.00
2022-10-06T03:24:52.677Z,98548.16
2022-10-06T03:27:21.409Z,98547.91
2022-10-06T03:29:49.249Z,98544.66
2022-10-06T03:32:16.123Z,98543.91
2022-10-06T03:34:43.751Z,98544.13
2022-10-06T03:37:13.490Z,98548.19
2022-10-06T03:39:40.169Z,98549.16
2022-10-06T03:42:07.383Z,98552.69
2022-10-06T03:44:37.129Z,98559.41
2022-10-06T03:47:04.817Z,98565.69
2022-10-06T03:49:32.726Z,98560.66
2022-10-06T03:51:59.378Z,98557.28
2022-10-06T03:54:30.504Z,98568.59
2022-10-06T03:56:57.151Z,98576.13
2022-10-06T03:59:24.271Z,98579.84
2022-10-06T04:01:53.077Z,98593.47
2022-10-06T04:04:26.718Z,98587.50
2022-10-06T04:06:59.068Z,98589.19
2022-10-06T04:09:26.042Z,98602.47
2022-10-06T04:11:53.266Z,98591.38
2022-10-06T04:14:20.911Z,98592.19
2022-10-06T04:16:50.174Z,98597.06
2022-10-06T04:19:22.380Z,98605.44
2022-10-06T04:21:53.458Z,98605.44
2022-10-06T04:24:23.591Z,98602.38
2022-10-06T04:26:52.615Z,98597.34
2022-10-06T04:29:21.170Z,98598.56
2022-10-06T04:31:57.225Z,98607.53
2022-10-06T04:34:35.654Z,98601.13
2022-10-06T04:37:04.075Z,98611.25
2022-10-06T04:39:30.901Z,98609.78
2022-10-06T04:41:58.212Z,98615.84
2022-10-06T04:44:29.006Z,98610.81
2022-10-06T04:47:00.688Z,98611.09
2022-10-06T04:49:27.718Z,98611.84
2022-10-06T04:51:56.182Z,98612.69
2022-10-06T04:54:23.178Z,98617.91
2022-10-06T04:56:54.462Z,98615.00
2022-10-06T04:59:43.816Z,98613.34
2022-10-06T05:02:12.032Z,98618.16
2022-10-06T05:04:39.675Z,98620.03
2022-10-06T05:07:07.318Z,98621.44
2022-10-06T05:09:34.531Z,98617.78
2022-10-06T05:12:02.630Z,98622.47
2022-10-06T05:14:29.372Z,98622.56
2022-10-06T05:16:56.147Z,98632.19
2022-10-06T05:19:23.250Z,98639.47
2022-10-06T05:21:49.973Z,98625.84
2022-10-06T05:24:20.527Z,98636.44
2022-10-06T05:26:49.579Z,98638.88
2022-10-06T05:29:16.643Z,98644.75
2022-10-06T05:31:44.970Z,98643.72
2022-10-06T05:34:13.882Z,98645.78
2022-10-06T05:36:40.633Z,98647.00
2022-10-06T05:39:10.597Z,98651.19
2022-10-06T05:41:43.623Z,98655.00
2022-10-06T05:44:11.636Z,98661.53
2022-10-06T05:46:40.129Z,98663.03
2022-10-06T05:49:10.272Z,98659.50
2022-10-06T05:51:40.532Z,98662.44
2022-10-06T05:54:14.406Z,98673.06
2022-10-06T05:56:41.562Z,98679.38
2022-10-06T05:59:08.780Z,98685.81
2022-10-06T06:01:39.845Z,98678.16
2022-10-06T06:04:14.287Z,98685.63
2022-10-06T06:06:49.019Z,98683.22
2022-10-06T06:09:21.331Z,98680.28
2022-10-06T06:11:53.087Z,98690.16
2022-10-06T06:14:43.392Z,98691.75
2022-10-06T06:17:13.783Z,98701.81
2022-10-06T06:19:40.546Z,98706.25
2022-10-06T06:22:08.347Z,98707.31
2022-10-06T06:24:39.018Z,98708.97
2022-10-06T06:27:05.843Z,98713.94
2022-10-06T06:29:32.671Z,98718.22
2022-10-06T06:31:59.438Z,98713.53
2022-10-06T06:34:27.442Z,98717.81
2022-10-06T06:37:02.335Z,98722.53
2022-10-06T06:39:34.243Z,98707.47
2022-10-06T06:42:02.112Z,98722.16
2022-10-06T06:44:39.195Z,98723.34
2022-10-06T06:47:13.479Z,98723.63
2022-10-06T06:49:40.643Z,98730.69
2022-10-06T06:52:08.991Z,98726.44
2022-10-06T06:54:43.111Z,98735.94
2022-10-06T06:57:14.827Z,98740.16
2022-10-06T06:59:41.487Z,98741.28
2022-10-06T07:02:11.909Z,98742.84
2022-10-06T07:04:43.966Z,98745.44
2022-10-06T07:07:14.240Z,98746.59
2022-10-06T07:09:41.754Z,98747.81
2022-10-06T07:12:11.453Z,98744.34
2022-10-06T07:15:01.629Z,98746.13
2022-10-06T07:17:48.996Z,98740.41
2022-10-06T07:20:35.169Z,98743.78
2022-10-06T07:23:20.582Z,98748.06
2022-10-06T07:25:47.411Z,98750.81
2022-10-06T07:28:16.981Z,98744.91
2022-10-06T07:30:44.847Z,98746.16
2022-10-06T07:33:15.801Z,98740.91
2022-10-06T07:35:45.126Z,98746.38
2022-10-06T07:38:13.506Z,98744.38
2022-10-06T07:41:14.516Z,98753.94
2022-10-06T07:43:33.314Z,98759.91
2022-10-06T07:46:01.204Z,98761.31
2022-10-06T07:48:32.494Z,98759.38
2022-10-06T07:51:07.293Z,98766.31
2022-10-06T07:53:37.447Z,98762.69
2022-10-06T07:56:20.714Z,98764.59
2022-10-06T07:58:51.731Z,98767.66
2022-10-06T08:01:20.844Z,98771.22
2022-10-06T08:03:50.883Z,98771.59
2022-10-06T08:06:19.317Z,98768.66
2022-10-06T08:08:51.832Z,98777.94
2022-10-06T08:11:20.976Z,98774.41
2022-10-06T08:13:51.832Z,98779.00
2022-10-06T08:16:21.393Z,98781.88
2022-10-06T08:18:53.409Z,98786.41
2022-10-06T08:21:29.677Z,98787.44
2022-10-06T08:23:57.777Z,98794.94
2022-10-06T08:26:26.369Z,98791.28
2022-10-06T08:28:57.502Z,98788.59
2022-10-06T08:31:24.521Z,98798.50
2022-10-06T08:33:56.671Z,98794.16
2022-10-06T08:36:30.853Z,98802.13
2022-10-06T08:38:58.574Z,98805.69
2022-10-06T08:41:28.779Z,98801.41
2022-10-06T08:44:18.552Z,98794.94
2022-10-06T08:46:53.154Z,98804.72
2022-10-06T08:49:22.341Z,98803.16
2022-10-06T08:52:17.291Z,98798.97
2022-10-06T08:54:56.159Z,98801.94
2022-10-06T08:57:34.757Z,98802.78
2022-10-06T09:00:04.103Z,98822.56
2022-10-06T09:02:35.377Z,98804.88
2022-10-06T09:05:06.224Z,98808.34
2022-10-06T09:07:48.471Z,98812.75
2022-10-06T09:10:41.194Z,98807.09
2022-10-06T09:13:22.174Z,98814.66
2022-10-06T09:15:55.947Z,98814.78
2022-10-06T09:18:56.449Z,98822.00
2022-10-06T09:21:35.930Z,98816.34
2022-10-06T09:24:10.827Z,98818.75
2022-10-06T09:26:44.101Z,98818.22
2022-10-06T09:29:11.689Z,98820.84
2022-10-06T09:31:42.204Z,98820.66
2022-10-06T09:34:08.843Z,98819.66
2022-10-06T09:37:03.240Z,98820.06
2022-10-06T09:39:37.022Z,98820.13
2022-10-06T09:42:21.099Z,98830.16
2022-10-06T09:44:56.881Z,98826.16
2022-10-06T09:47:37.150Z,98826.84
2022-10-06T09:50:14.501Z,98827.41
2022-10-06T09:53:05.939Z,98823.63
2022-10-06T09:55:39.261Z,98824.91
2022-10-06T09:58:24.194Z,98810.75
2022-10-06T10:01:00.473Z,98812.69
2022-10-06T10:03:51.463Z,98818.91
2022-10-06T10:06:35.183Z,98817.63
2022-10-06T10:09:29.100Z,98811.38
2022-10-06T10:12:27.864Z,98811.41
2022-10-06T10:15:16.207Z,98814.06
2022-10-06T10:17:49.248Z,98817.13
2022-10-06T10:20:28.340Z,98809.75
2022-10-06T10:23:17.806Z,98815.78
2022-10-06T10:25:55.394Z,98812.94
2022-10-06T10:28:34.863Z,98810.22
2022-10-06T10:31:33.481Z,98818.31
2022-10-06T10:34:24.833Z,98809.50
2022-10-06T10:36:54.678Z,98812.63
2022-10-06T10:39:38.315Z,98807.53
2022-10-06T10:42:15.394Z,98814.16
2022-10-06T10:44:51.836Z,98814.66
2022-10-06T10:47:30.786Z,98813.47
2022-10-06T10:50:06.695Z,98816.28
2022-10-06T10:52:41.494Z,98814.88
2022-10-06T10:55:28.547Z,98816.00
2022-10-06T10:58:15.009Z,98814.13
2022-10-06T11:00:44.404Z,98817.06
2022-10-06T11:03:11.920Z,98817.16
2022-10-06T11:06:03.127Z,98816.13
2022-10-06T11:08:38.614Z,98815.44
2022-10-06T11:11:22.466Z,98816.22
2022-10-06T11:13:52.801Z,98818.63
2022-10-06T11:16:40.259Z,98804.25
2022-10-06T11:19:27.681Z,98803.13
2022-10-06T11:22:27.084Z,98806.63
2022-10-06T11:25:05.079Z,98804.88
2022-10-06T11:27:54.481Z,98797.59
2022-10-06T11:30:27.020Z,98809.25
2022-10-06T11:33:07.976Z,98793.00
2022-10-06T11:35:39.497Z,98800.72
2022-10-06T11:38:33.136Z,98796.66
2022-10-06T11:41:11.740Z,98802.47
2022-10-06T11:44:03.782Z,98798.16
2022-10-06T11:46:49.518Z,98798.47
2022-10-06T11:49:39.332Z,98793.38
2022-10-06T11:52:08.338Z,98790.59
2022-10-06T11:54:55.097Z,98787.91
2022-10-06T11:57:29.636Z,98788.97
2022-10-06T12:00:03.667Z,98779.28
2022-10-06T12:02:33.985Z,98781.97
2022-10-06T12:05:28.681Z,98786.59
2022-10-06T12:07:56.765Z,98788.25
2022-10-06T12:10:29.412Z,98783.69
2022-10-06T12:14:01.671Z,98785.03
2022-10-06T12:19:29.821Z,98785.03
2022-10-06T12:22:12.373Z,98780.81
2022-10-06T12:24:47.593Z,98783.38
2022-10-06T12:27:23.371Z,98773.63
2022-10-06T12:30:06.728Z,98779.19
2022-10-06T12:32:52.706Z,98782.69
2022-10-06T12:35:24.876Z,98781.94
2022-10-06T12:37:54.747Z,98782.41
2022-10-06T12:40:57.960Z,98784.72
2022-10-06T12:43:32.553Z,98786.56
2022-10-06T12:46:07.647Z,98779.69
2022-10-06T12:48:50.175Z,98783.81
2022-10-06T12:51:30.458Z,98784.22
2022-10-06T12:54:10.172Z,98777.53
2022-10-06T12:56:39.819Z,98784.72
2022-10-06T12:59:29.174Z,98785.97
2022-10-06T13:02:28.738Z,98772.78
2022-10-06T13:05:11.087Z,98773.13
2022-10-06T13:07:57.344Z,98775.03
2022-10-06T13:10:25.100Z,98776.00
2022-10-06T13:12:52.922Z,98766.50
2022-10-06T13:15:29.726Z,98778.47
2022-10-06T13:18:04.226Z,98780.88
2022-10-06T13:21:04.138Z,98781.47
2022-10-06T13:23:34.874Z,98784.84
2022-10-06T13:26:14.714Z,98778.47
2022-10-06T13:28:43.861Z,98780.09
2022-10-06T13:31:35.239Z,98778.00
2022-10-06T13:34:05.297Z,98779.84
2022-10-06T13:36:35.413Z,98777.88
2022-10-06T13:39:26.370Z,98785.19
2022-10-06T13:42:03.489Z,98784.47
2022-10-06T13:44:39.210Z,98791.44
2022-10-06T13:47:19.225Z,98785.22
2022-10-06T13:49:56.718Z,98783.69
2022-10-06T13:52:49.061Z,98790.16
2022-10-06T13:55:28.721Z,98785.41
2022-10-06T13:58:03.566Z,98788.34
2022-10-06T14:00:50.162Z,98782.06
2022-10-06T14:06:19.245Z,98786.53
2022-10-06T14:08:51.863Z,98792.78
2022-10-06T14:11:24.783Z,98791.19
2022-10-06T14:13:55.454Z,98787.03
2022-10-06T14:16:24.762Z,98792.59
2022-10-06T14:19:03.821Z,98787.19
2022-10-06T14:21:41.493Z,98789.00
2022-10-06T14:24:17.086Z,98791.13
2022-10-06T14:26:45.631Z,98784.03
2022-10-06T14:29:16.119Z,98789.44
2022-10-06T14:31:43.754Z,98791.91
2022-10-06T14:34:15.666Z,98795.31
2022-10-06T14:36:55.033Z,98791.69
2022-10-06T14:39:22.497Z,98797.53
2022-10-06T14:41:49.231Z,98797.78
2022-10-06T14:44:16.324Z,98797.78
2022-10-06T14:46:48.076Z,98793.00
2022-10-06T14:49:15.795Z,98784.69
2022-10-06T14:51:44.071Z,98788.38
2022-10-06T14:54:11.873Z,98785.47
2022-10-06T14:56:40.174Z,98787.38
2022-10-06T14:59:10.054Z,98796.94
2022-10-06T15:01:40.144Z,98793.13
2022-10-06T15:04:15.351Z,98795.56
2022-10-06T15:07:01.122Z,98797.28
2022-10-06T15:09:30.874Z,98799.75
2022-10-06T15:11:58.508Z,98799.63
2022-10-06T15:14:25.635Z,98799.56
2022-10-06T15:16:52.582Z,98806.22
2022-10-06T15:19:19.523Z,98810.25
2022-10-06T15:21:46.394Z,98809.16
2022-10-06T15:24:19.105Z,98811.28
2022-10-06T15:27:05.678Z,98813.69
2022-10-06T15:29:34.880Z,98815.94
2022-10-06T15:32:03.690Z,98808.13
2022-10-06T15:34:33.551Z,98806.81
2022-10-06T15:37:01.013Z,98818.88
2022-10-06T15:39:30.362Z,98806.00
2022-10-06T15:41:58.092Z,98813.75
2022-10-06T15:44:27.420Z,98807.53
2022-10-06T15:46:56.029Z,98811.22
2022-10-06T15:49:29.594Z,98814.41
2022-10-06T15:51:59.432Z,98821.22
2022-10-06T15:54:28.560Z,98818.31
2022-10-06T15:56:59.399Z,98830.44
2022-10-06T15:59:28.010Z,98825.47
2022-10-06T16:01:57.977Z,98829.22
2022-10-06T16:04:55.172Z,98840.88
2022-10-06T16:07:21.879Z,98838.22
2022-10-06T16:09:50.212Z,98850.53
2022-10-06T16:12:20.510Z,98850.69
2022-10-06T16:14:47.915Z,98847.50
2022-10-06T16:17:15.244Z,98848.81
2022-10-06T16:19:42.499Z,98854.63
2022-10-06T16:22:12.277Z,98855.66
2022-10-06T16:24:39.317Z,98859.47
2022-10-06T16:27:07.363Z,98861.25
2022-10-06T16:29:34.473Z,98867.69
2022-10-06T16:32:01.548Z,98874.75
2022-10-06T16:34:30.330Z,98871.53
2022-10-06T16:36:58.055Z,98873.75
2022-10-06T16:39:25.233Z,98881.84
2022-10-06T16:41:52.664Z,98882.72
2022-10-06T16:44:19.385Z,98899.31
2022-10-06T16:46:46.942Z,98890.56
2022-10-06T16:49:13.988Z,98898.19
2022-10-06T16:51:43.346Z,98895.06
2022-10-06T16:54:12.661Z,98899.63
2022-10-06T16:56:42.450Z,98904.00
2022-10-06T16:59:15.141Z,98903.63
2022-10-06T17:01:42.576Z,98908.69
2022-10-06T17:04:10.894Z,98914.06
2022-10-06T17:06:40.122Z,98914.53
2022-10-06T17:09:08.636Z,98915.03
2022-10-06T17:11:36.111Z,98916.59
2022-10-06T17:14:03.437Z,98929.47
2022-10-06T17:16:34.257Z,98927.94
2022-10-06T17:19:01.375Z,98936.31
2022-10-06T17:21:45.465Z,98931.88
2022-10-06T17:24:14.712Z,98932.47
2022-10-06T17:26:42.982Z,98936.38
2022-10-06T17:29:21.300Z,98939.19
2022-10-06T17:31:50.713Z,98937.81
2022-10-06T17:34:21.944Z,98940.06
2022-10-06T17:36:52.123Z,98943.03
2022-10-06T17:39:22.552Z,98949.72
2022-10-06T17:41:51.954Z,98940.53
2022-10-06T17:44:26.638Z,98946.25
2022-10-06T17:46:57.255Z,98945.41
2022-10-06T17:49:24.929Z,98956.16
2022-10-06T17:51:54.745Z,98951.41
2022-10-06T17:54:23.408Z,98957.13
2022-10-06T17:56:52.524Z,98954.06
2022-10-06T17:59:22.529Z,98951.41
2022-10-06T18:01:51.346Z,98958.53
2022-10-06T18:04:18.549Z,98957.09
2022-10-06T18:06:46.611Z,98955.19
2022-10-06T18:09:14.799Z,98950.97
2022-10-06T18:11:44.024Z,98955.69
2022-10-06T18:14:19.567Z,98948.72
2022-10-06T18:16:56.231Z,98958.22
2022-10-06T18:19:28.684Z,98949.03
2022-10-06T18:21:58.813Z,98948.72
2022-10-06T18:24:27.704Z,98950.38
2022-10-06T18:26:56.702Z,98950.66
2022-10-06T18:29:28.243Z,98949.25
2022-10-06T18:32:01.339Z,98960.97
2022-10-06T18:37:23.423Z,98968.41
2022-10-06T18:39:50.255Z,98970.78
2022-10-06T18:42:17.868Z,98967.03
2022-10-06T18:45:03.156Z,98974.28
2022-10-06T18:47:48.540Z,98982.31
2022-10-06T18:50:15.529Z,98976.72
2022-10-06T18:52:43.780Z,98976.81
2022-10-06T18:55:10.648Z,98977.53
2022-10-06T18:57:37.706Z,98985.03
2022-10-06T19:00:04.900Z,98979.59
2022-10-06T19:02:32.351Z,98985.84
2022-10-06T19:04:59.240Z,98992.50
2022-10-06T19:07:30.825Z,98989.66
2022-10-06T19:09:57.522Z,98992.63
2022-10-06T19:12:24.239Z,98986.63
2022-10-06T19:14:53.726Z,98990.38
2022-10-06T19:17:23.024Z,98986.91
2022-10-06T19:19:55.244Z,98990.50
2022-10-06T19:22:24.431Z,98989.66
2022-10-06T19:24:52.407Z,98983.22
2022-10-06T19:27:24.335Z,98990.72
2022-10-06T19:29:54.216Z,98974.72
2022-10-06T19:32:26.507Z,98983.88
2022-10-06T19:34:58.022Z,98982.47
2022-10-06T19:37:27.856Z,98980.63
2022-10-06T19:39:54.531Z,98978.31
2022-10-06T19:42:40.088Z,98977.03
2022-10-06T19:45:08.600Z,98976.72
2022-10-06T19:47:35.584Z,98990.31
2022-10-06T19:50:08.799Z,98982.75
2022-10-06T19:52:38.526Z,98992.06
2022-10-06T19:55:05.573Z,98988.81
2022-10-06T19:57:33.596Z,98985.19
2022-10-06T20:00:00.651Z,98989.53
2022-10-06T20:02:28.832Z,98994.59
2022-10-06T20:04:56.581Z,98992.22
2022-10-06T20:07:27.938Z,98997.19
2022-10-06T20:09:55.814Z,99002.09
2022-10-06T20:12:25.400Z,99001.25
2022-10-06T20:14:53.692Z,98998.00
2022-10-06T20:17:20.853Z,98995.88
2022-10-06T20:19:48.172Z,98996.13
2022-10-06T20:22:15.018Z,98992.91
2022-10-06T20:24:42.061Z,98996.88
2022-10-06T20:27:09.088Z,98990.41
2022-10-06T20:29:36.154Z,98997.41
2022-10-06T20:32:05.454Z,98987.91
2022-10-06T20:34:35.241Z,98986.50
2022-10-06T20:37:03.647Z,98991.31
2022-10-06T20:39:53.766Z,98980.88
2022-10-06T20:42:21.004Z,98978.47
2022-10-06T20:44:48.451Z,98983.75
2022-10-06T20:47:16.763Z,98982.94
2022-10-06T20:49:44.456Z,98982.22
2022-10-06T20:52:14.530Z,98983.53
2022-10-06T20:54:42.466Z,98976.13
2022-10-06T20:57:09.672Z,98980.91
2022-10-06T20:59:37.851Z,98987.88
2022-10-06T21:02:06.321Z,98979.50
2022-10-06T21:04:34.451Z,98983.34
2022-10-06T21:07:04.034Z,98976.16
2022-10-06T21:09:30.939Z,98982.63
2022-10-06T21:11:57.673Z,98985.53
2022-10-06T21:14:25.342Z,98983.00
2022-10-06T21:16:51.990Z,98981.53
2022-10-06T21:19:19.556Z,98972.91
2022-10-06T21:21:52.124Z,98975.81
2022-10-06T21:24:19.572Z,98978.97
2022-10-06T21:26:46.416Z,98979.19
2022-10-06T21:29:15.503Z,98979.19
2022-10-06T21:31:43.729Z,98983.25
2022-10-06T21:34:10.984Z,98986.00
2022-10-06T21:36:38.464Z,98988.41
2022-10-06T21:39:07.132Z,98980.22
2022-10-06T21:41:39.877Z,98974.38
2022-10-06T21:44:13.690Z,98972.66
2022-10-06T21:46:48.027Z,98982.16
2022-10-06T21:49:17.965Z,98970.66
2022-10-06T21:51:46.912Z,98968.72
2022-10-06T21:54:14.705Z,98967.41
2022-10-06T21:56:41.799Z,98972.81
2022-10-06T21:59:09.328Z,98968.50
2022-10-06T22:01:42.237Z,98953.72
2022-10-06T22:04:11.876Z,98959.13
2022-10-06T22:06:38.803Z,98954.22
2022-10-06T22:09:07.481Z,98958.41
2022-10-06T22:11:37.325Z,98950.97
2022-10-06T22:14:06.668Z,98952.16
2022-10-06T22:16:35.652Z,98943.03
2022-10-06T22:19:04.638Z,98946.66
2022-10-06T22:21:35.820Z,98947.13
2022-10-06T22:24:14.710Z,98944.03
2022-10-06T22:26:42.953Z,98941.03
2022-10-06T22:29:12.627Z,98942.56
2022-10-06T22:31:41.541Z,98942.56
2022-10-06T22:34:11.244Z,98938.97
2022-10-06T22:36:38.129Z,98932.50
2022-10-06T22:39:05.587Z,98930.94
2022-10-06T22:41:32.602Z,98925.78
2022-10-06T22:44:00.195Z,98932.97
2022-10-06T22:46:29.845Z,98933.69
2022-10-06T22:48:56.712Z,98933.06
2022-10-06T22:51:23.918Z,98929.13
2022-10-06T22:53:58.144Z,98928.75
2022-10-06T22:56:31.637Z,98928.13
2022-10-06T22:59:00.137Z,98938.44
2022-10-06T23:01:29.533Z,98932.69
2022-10-06T23:03:56.893Z,98930.28
2022-10-06T23:06:24.682Z,98929.78
2022-10-06T23:08:52.131Z,98931.69
2022-10-06T23:11:20.497Z,98927.50
2022-10-06T23:13:48.561Z,98926.75
2022-10-06T23:16:17.213Z,98919.22
2022-10-06T23:18:45.145Z,98921.97
2022-10-06T23:21:21.667Z,98925.19
2022-10-06T23:23:51.670Z,98933.34
2022-10-06T23:26:19.330Z,98925.78
2022-10-06T23:28:50.307Z,98923.97
2022-10-06T23:31:17.641Z,98921.81
2022-10-06T23:33:44.332Z,98923.72
2022-10-06T23:36:12.448Z,98922.03
2022-10-06T23:38:39.646Z,98923.72
2022-10-06T23:41:07.174Z,98921.81
2022-10-06T23:43:34.740Z,98926.56
2022-10-06T23:46:02.170Z,98922.28
2022-10-06T23:48:29.601Z,98926.72
2022-10-06T23:50:56.383Z,98932.41
2022-10-06T23:53:23.974Z,98929.16
2022-10-06T23:55:50.652Z,98929.16
2022-10-06T23:58:20.674Z,98927.81
